Palisades, OR

6:20 PM PDT on August 30, 2015 (GMT -0700)
MSW South Shore Estates | | Change Station
CLOSE
Current Station
Personal Weather Station
Location: Lake Oswego, OR
Elevation: 400 ft
Nearby Weather Stations

Elev 400 ft 45.41 °N, 122.69 °W | Updated 1 minute ago

Overcast
Overcast
68.7 °F
Feels Like 68.7 °F
N
2.7
Wind Variable Wind from East

Today
High -- | Low -- °F
--% Chance of Precip.
Yesterday
High -- | Low -- °F
Precip. -- in
6:29 AM 7:52 PM
Full, 98% visible
Pressure 30.04 in
Visibility 10.0 miles
Clouds Mostly Cloudy 5000 ft
Mostly Cloudy 8000 ft
Overcast 9000 ft
Dew Point 46 °F
Humidity 45%
Rainfall 0.96 in
Snow Depth Not available.
UV 0 out of 12
Pollen .50 out of 12
Air Quality Not available.
Flu Activity Not available.
METAR KUAO 310053Z 24006KT 10SM BKN050 BKN080 OVC090 21/10 A3004 RMK AO2 SLP172 T02060100 $
Pressure 30.04 in
Visibility 10.0 miles
Clouds Mostly Cloudy 5000 ft
Mostly Cloudy 8000 ft
Overcast 9000 ft
Dew Point 46 °F
Humidity 45%
Rainfall 0.96 in
Snow Depth Not available.
UV 0 out of 12
Pollen .50 out of 12
Air Quality Not available.
Flu Activity Not available.
METAR KUAO 310053Z 24006KT 10SM BKN050 BKN080 OVC090 21/10 A3004 RMK AO2 SLP172 T02060100 $

10-Day Weather Forecast

×

Almanac

Astronomy

Aug. 30, 2015 Rise Set
Actual Time
Civil Twilight
Nautical Twilight
Astronomical Twilight
Moon
Length of Visible Light
Length of Day
Tomorrow will be .
, % of the Moon is Illuminated

Today's Extremes

State Highs State Lows

Community

WunderPhotos

Upload Photos

1,851,131 photos uploaded!

WunderBlogs® & News

Nearby

Air Quality

  Air Quality AQ Index Pollutant
Not available.

Snow Depth

Station Depth Elevation

Earthquake Activity

City Distance Mag. Time & Date
Minimum magnitude displayed is 2.5.

Coastal Water Temperatures

Place Temperature

Stations

Nearby Weather Stations

Station Location Temp. Windchill Dew Point Humidity Wind Precip. Elev Updated Type